createdAt,value
2018-12-13T00:00:18.351Z,8.00
2018-12-13T00:02:46.093Z,7.10
2018-12-13T00:05:13.595Z,6.87
2018-12-13T00:07:42.055Z,7.87
2018-12-13T00:10:09.718Z,7.70
2018-12-13T00:12:40.130Z,8.93
2018-12-13T00:15:07.758Z,8.17
2018-12-13T00:17:35.427Z,8.70
2018-12-13T00:20:03.757Z,9.87
2018-12-13T00:22:31.412Z,10.43
2018-12-13T00:24:58.963Z,9.60
2018-12-13T00:27:26.555Z,9.60
2018-12-13T00:29:54.040Z,9.80
2018-12-13T00:32:21.535Z,10.40
2018-12-13T00:34:49.957Z,11.10
2018-12-13T00:37:18.016Z,10.40
2018-12-13T00:39:45.529Z,10.87
2018-12-13T00:42:14.810Z,11.07
2018-12-13T00:44:42.304Z,12.10
2018-12-13T00:47:09.788Z,10.17
2018-12-13T00:49:37.258Z,12.30
2018-12-13T00:52:05.605Z,10.23
2018-12-13T00:54:33.239Z,10.70
2018-12-13T00:57:00.749Z,11.97
2018-12-13T00:59:28.195Z,10.93
2018-12-13T01:01:55.721Z,12.00
2018-12-13T01:04:23.359Z,11.53
2018-12-13T01:06:50.795Z,10.83
2018-12-13T01:09:18.320Z,12.83
2018-12-13T01:11:46.601Z,12.67
2018-12-13T01:14:14.096Z,11.20
2018-12-13T01:16:41.588Z,11.87
2018-12-13T01:19:09.114Z,10.63
2018-12-13T01:21:36.601Z,11.77
2018-12-13T01:24:04.164Z,10.70
2018-12-13T01:26:31.726Z,11.80
2018-12-13T01:28:59.206Z,12.63
2018-12-13T01:31:26.964Z,11.73
2018-12-13T01:33:54.555Z,12.57
2018-12-13T01:36:22.027Z,12.90
2018-12-13T01:38:49.471Z,11.50
2018-12-13T01:41:16.970Z,12.33
2018-12-13T01:43:44.650Z,13.77
2018-12-13T01:46:12.210Z,11.73
2018-12-13T01:48:39.829Z,13.07
2018-12-13T01:51:07.438Z,14.33
2018-12-13T01:53:35.099Z,13.57
2018-12-13T01:56:03.423Z,13.87
2018-12-13T01:58:30.954Z,13.90
2018-12-13T02:00:58.436Z,15.53
2018-12-13T02:03:25.969Z,13.93
2018-12-13T02:05:53.479Z,17.63
2018-12-13T02:08:21.095Z,16.50
2018-12-13T02:10:48.600Z,16.23
2018-12-13T02:13:16.094Z,15.50
2018-12-13T02:15:43.599Z,17.33
2018-12-13T02:18:11.103Z,17.00
2018-12-13T02:20:38.600Z,17.20
2018-12-13T02:23:06.226Z,15.50
2018-12-13T02:25:33.761Z,16.57
2018-12-13T02:28:01.361Z,17.63
2018-12-13T02:30:29.192Z,17.70
2018-12-13T02:32:56.695Z,19.37
2018-12-13T02:35:24.183Z,18.37
2018-12-13T02:37:51.665Z,18.60
2018-12-13T02:40:19.131Z,18.90
2018-12-13T02:42:47.041Z,20.17
2018-12-13T02:45:14.535Z,20.40
2018-12-13T02:47:42.134Z,19.33
2018-12-13T02:50:09.759Z,18.10
2018-12-13T02:52:37.255Z,20.33
2018-12-13T02:55:04.940Z,20.40
2018-12-13T02:57:33.269Z,20.57
2018-12-13T03:00:01.144Z,19.23
2018-12-13T03:02:29.269Z,19.20
2018-12-13T03:04:56.852Z,22.23
2018-12-13T03:07:24.356Z,18.53
2018-12-13T03:09:51.971Z,20.03
2018-12-13T03:12:19.538Z,20.97
2018-12-13T03:14:47.033Z,21.10
2018-12-13T03:17:14.589Z,19.70
2018-12-13T03:19:42.093Z,18.77
2018-12-13T03:22:10.220Z,20.43
2018-12-13T03:24:37.757Z,20.20
2018-12-13T03:27:05.270Z,20.40
2018-12-13T03:29:32.959Z,20.93
2018-12-13T03:32:00.605Z,22.90
2018-12-13T03:34:28.439Z,20.97
2018-12-13T03:36:55.934Z,21.17
2018-12-13T03:39:23.481Z,22.50
2018-12-13T03:41:51.013Z,22.80
2018-12-13T03:44:18.480Z,21.17
2018-12-13T03:46:45.951Z,20.97
2018-12-13T03:49:13.452Z,21.23
2018-12-13T03:51:40.911Z,20.87
2018-12-13T03:54:08.453Z,22.47
2018-12-13T03:56:36.003Z,22.53
2018-12-13T03:59:03.535Z,21.07
2018-12-13T04:01:31.020Z,19.63
2018-12-13T04:03:59.506Z,20.20
2018-12-13T04:06:27.041Z,21.23
2018-12-13T04:08:54.511Z,20.03
2018-12-13T04:11:21.994Z,21.90
2018-12-13T04:13:49.597Z,20.27
2018-12-13T04:16:17.120Z,19.33
2018-12-13T04:18:44.626Z,17.93
2018-12-13T04:21:12.151Z,19.70
2018-12-13T04:23:40.008Z,19.03
2018-12-13T04:26:07.933Z,20.80
2018-12-13T04:28:36.473Z,18.23
2018-12-13T04:31:04.055Z,18.03
2018-12-13T04:33:31.571Z,17.77
2018-12-13T04:35:59.142Z,18.67
2018-12-13T04:38:26.606Z,15.33
2018-12-13T04:40:54.072Z,17.10
2018-12-13T04:43:21.598Z,16.17
2018-12-13T04:45:49.343Z,17.77
2018-12-13T04:48:16.842Z,16.53
2018-12-13T04:50:44.299Z,13.83
2018-12-13T04:53:11.806Z,14.07
2018-12-13T04:55:39.305Z,13.70
2018-12-13T04:58:06.824Z,13.47
2018-12-13T05:00:34.338Z,14.33
2018-12-13T05:03:01.821Z,12.70
2018-12-13T05:05:29.359Z,13.00
2018-12-13T05:07:57.302Z,11.07
2018-12-13T05:10:36.682Z,12.90
2018-12-13T05:13:04.864Z,12.13
2018-12-13T05:15:33.190Z,11.00
2018-12-13T05:18:01.515Z,10.63
2018-12-13T05:20:28.981Z,10.50
2018-12-13T05:22:57.951Z,13.33
2018-12-13T05:25:25.522Z,13.00
2018-12-13T05:27:53.067Z,11.07
2018-12-13T05:30:20.888Z,12.50
2018-12-13T05:32:48.403Z,11.27
2018-12-13T05:35:15.853Z,11.37
2018-12-13T05:37:48.266Z,10.20
2018-12-13T05:40:12.856Z,12.20
2018-12-13T05:42:41.134Z,11.80
2018-12-13T05:47:50.298Z,11.07
2018-12-13T05:50:17.839Z,10.60
2018-12-13T05:52:48.333Z,11.23
2018-12-13T05:55:16.793Z,10.97
2018-12-13T05:57:44.432Z,9.70
2018-12-13T06:00:12.900Z,10.20
2018-12-13T06:02:41.099Z,11.87
2018-12-13T06:05:09.590Z,13.15
2018-12-13T06:07:37.722Z,11.53
2018-12-13T06:10:05.891Z,9.97
2018-12-13T06:12:33.467Z,10.77
2018-12-13T06:15:03.138Z,11.80
2018-12-13T06:17:30.621Z,10.67
2018-12-13T06:19:58.099Z,10.93
2018-12-13T06:22:25.581Z,10.83
2018-12-13T06:24:53.066Z,11.00
2018-12-13T06:27:21.419Z,10.53
2018-12-13T06:29:49.073Z,9.87
2018-12-13T06:32:16.631Z,12.33
2018-12-13T06:34:44.116Z,10.73
2018-12-13T06:37:12.905Z,10.50
2018-12-13T06:39:41.534Z,10.27
2018-12-13T06:42:09.165Z,10.63
2018-12-13T06:44:36.760Z,10.80
2018-12-13T06:47:05.214Z,10.80
2018-12-13T06:49:35.489Z,11.00
2018-12-13T06:52:04.994Z,10.87
2018-12-13T06:54:36.297Z,13.53
2018-12-13T06:57:04.715Z,11.87
2018-12-13T06:59:32.292Z,10.77
2018-12-13T07:02:00.503Z,12.70
2018-12-13T07:04:28.000Z,10.50
2018-12-13T07:06:56.235Z,13.53
2018-12-13T07:09:23.715Z,12.30
2018-12-13T07:11:52.193Z,12.00
2018-12-13T07:14:19.699Z,11.10
2018-12-13T07:16:47.298Z,12.00
2018-12-13T07:19:14.866Z,10.40
2018-12-13T07:21:43.039Z,11.60
2018-12-13T07:24:10.575Z,10.60
2018-12-13T07:26:38.126Z,13.10
2018-12-13T07:29:05.648Z,10.40
2018-12-13T07:31:33.265Z,10.47
2018-12-13T07:34:00.803Z,9.70
2018-12-13T07:36:29.261Z,11.83
2018-12-13T07:38:57.975Z,10.27
2018-12-13T07:41:25.686Z,10.90
2018-12-13T07:43:53.849Z,10.77
2018-12-13T07:46:21.664Z,11.80
2018-12-13T07:48:49.275Z,10.03
2018-12-13T07:51:16.799Z,10.27
2018-12-13T07:53:44.290Z,9.60
2018-12-13T07:56:11.752Z,9.10
2018-12-13T07:58:39.321Z,9.83
2018-12-13T08:01:06.854Z,10.70
2018-12-13T08:03:34.394Z,9.47
2018-12-13T08:06:01.901Z,9.27
2018-12-13T08:08:29.469Z,10.23
2018-12-13T08:10:56.950Z,8.93
2018-12-13T08:13:24.480Z,8.47
2018-12-13T08:15:52.002Z,8.30
2018-12-13T08:18:19.474Z,8.97
2018-12-13T08:20:47.040Z,8.33
2018-12-13T08:23:14.558Z,8.67
2018-12-13T08:25:42.369Z,7.70
2018-12-13T08:28:09.874Z,8.13
2018-12-13T08:30:37.529Z,8.03
2018-12-13T08:33:05.046Z,7.80
2018-12-13T08:35:32.535Z,8.73
2018-12-13T08:38:00.254Z,9.47
2018-12-13T08:40:27.750Z,7.97
2018-12-13T08:42:55.350Z,8.70
2018-12-13T08:45:22.833Z,8.40
2018-12-13T08:47:50.444Z,8.33
2018-12-13T08:50:17.999Z,9.40
2018-12-13T08:52:45.778Z,7.90
2018-12-13T08:55:13.969Z,9.10
2018-12-13T08:57:41.476Z,8.07
2018-12-13T09:00:09.193Z,8.00
2018-12-13T09:02:36.835Z,8.70
2018-12-13T09:05:05.848Z,7.60
2018-12-13T09:07:33.324Z,7.37
2018-12-13T09:10:00.862Z,7.57
2018-12-13T09:12:28.415Z,8.10
2018-12-13T09:14:56.802Z,7.40
2018-12-13T09:17:24.306Z,7.73
2018-12-13T09:19:51.759Z,7.73
2018-12-13T09:22:19.275Z,7.47
2018-12-13T09:24:46.760Z,8.13
2018-12-13T09:27:14.253Z,8.47
2018-12-13T09:29:41.752Z,7.13
2018-12-13T09:32:09.247Z,8.23
2018-12-13T09:34:38.048Z,7.50
2018-12-13T09:37:05.687Z,7.43
2018-12-13T09:39:33.235Z,8.07
2018-12-13T09:42:01.094Z,8.37
2018-12-13T09:44:28.576Z,7.47
2018-12-13T09:46:56.086Z,6.80
2018-12-13T09:49:23.662Z,6.90
2018-12-13T09:51:51.161Z,6.87
2018-12-13T09:54:18.632Z,6.83
2018-12-13T09:56:46.193Z,6.80
2018-12-13T09:59:13.700Z,6.50
2018-12-13T10:01:41.212Z,6.93
2018-12-13T10:04:08.782Z,6.33
2018-12-13T10:06:36.278Z,6.30
2018-12-13T10:09:05.982Z,7.20
2018-12-13T10:11:35.213Z,6.27
2018-12-13T10:14:04.209Z,7.00
2018-12-13T10:16:34.070Z,5.77
2018-12-13T10:19:01.593Z,6.50
2018-12-13T10:21:29.209Z,6.40
2018-12-13T10:23:57.051Z,6.67
2018-12-13T10:26:24.586Z,5.70
2018-12-13T10:28:52.409Z,6.67
2018-12-13T10:31:19.884Z,6.20
2018-12-13T10:33:47.745Z,5.70
2018-12-13T10:36:15.306Z,6.17
2018-12-13T10:38:43.041Z,6.17
2018-12-13T10:41:10.880Z,5.17
2018-12-13T10:43:38.463Z,6.23
2018-12-13T10:46:06.049Z,5.20
2018-12-13T10:48:33.695Z,5.80
2018-12-13T10:51:01.332Z,5.27
2018-12-13T10:53:30.390Z,5.40
2018-12-13T10:55:58.109Z,4.97
2018-12-13T10:58:25.610Z,5.50
2018-12-13T11:00:58.789Z,5.37
2018-12-13T11:03:32.001Z,5.03
2018-12-13T11:05:59.535Z,5.03
2018-12-13T11:08:27.159Z,5.00
2018-12-13T11:10:54.723Z,5.23
2018-12-13T11:13:22.362Z,4.77
2018-12-13T11:15:49.858Z,5.37
2018-12-13T11:18:17.407Z,4.97
2018-12-13T11:20:47.460Z,5.30
2018-12-13T11:23:15.122Z,5.63
2018-12-13T11:25:42.662Z,6.10
2018-12-13T11:31:16.999Z,5.57
2018-12-13T11:33:44.561Z,5.97
2018-12-13T11:36:12.100Z,5.90
2018-12-13T11:38:41.159Z,5.90
2018-12-13T11:41:08.660Z,5.53
2018-12-13T11:43:36.138Z,5.83
2018-12-13T11:46:03.638Z,6.30
2018-12-13T11:48:31.171Z,8.20
2018-12-13T11:50:58.730Z,5.90
2018-12-13T11:53:26.216Z,8.63
2018-12-13T11:55:53.911Z,7.07
2018-12-13T11:58:21.712Z,6.43
2018-12-13T12:00:49.472Z,5.97
2018-12-13T12:03:19.117Z,6.20
2018-12-13T12:05:47.370Z,6.37
2018-12-13T12:08:14.887Z,6.83
2018-12-13T12:10:42.372Z,6.00
2018-12-13T12:13:10.286Z,6.70
2018-12-13T12:15:37.897Z,6.00
2018-12-13T12:18:05.372Z,6.87
2018-12-13T12:20:33.104Z,6.00
2018-12-13T12:23:00.679Z,7.27
2018-12-13T12:25:28.175Z,5.90
2018-12-13T12:27:56.774Z,6.80
2018-12-13T12:30:24.311Z,6.70
2018-12-13T12:32:51.873Z,6.10
2018-12-13T12:35:19.671Z,6.23
2018-12-13T12:37:48.796Z,6.97
2018-12-13T12:40:17.145Z,6.17
2018-12-13T12:42:44.672Z,6.17
2018-12-13T12:45:12.167Z,6.30
2018-12-13T12:47:41.226Z,7.33
2018-12-13T12:50:08.931Z,6.10
2018-12-13T12:52:36.490Z,6.07
2018-12-13T12:55:04.829Z,5.93
2018-12-13T12:57:34.677Z,5.80
2018-12-13T13:00:07.546Z,5.77
2018-12-13T13:02:37.234Z,5.83
2018-12-13T13:05:05.928Z,5.53
2018-12-13T13:07:33.451Z,5.40
2018-12-13T13:10:01.149Z,5.70
2018-12-13T13:12:28.705Z,6.00
2018-12-13T13:14:56.326Z,5.37
2018-12-13T13:17:23.840Z,6.10
2018-12-13T13:19:51.629Z,5.73
2018-12-13T13:22:22.477Z,6.00
2018-12-13T13:24:50.111Z,5.83
2018-12-13T13:27:17.690Z,5.43
2018-12-13T13:29:45.260Z,5.10
2018-12-13T13:32:14.775Z,5.30
2018-12-13T13:34:43.225Z,5.40
2018-12-13T13:37:13.307Z,5.97
2018-12-13T13:39:40.842Z,5.50
2018-12-13T13:42:09.141Z,6.00
2018-12-13T13:44:37.286Z,5.67
2018-12-13T13:47:04.777Z,6.60
2018-12-13T13:49:32.289Z,5.87
2018-12-13T13:51:59.796Z,5.43
2018-12-13T13:54:27.317Z,5.40
2018-12-13T13:56:55.485Z,5.93
2018-12-13T13:59:23.004Z,5.43
2018-12-13T14:01:52.055Z,5.20
2018-12-13T14:04:19.546Z,5.30
2018-12-13T14:06:47.037Z,5.43
2018-12-13T14:09:14.581Z,5.43
2018-12-13T14:11:42.275Z,5.37
2018-12-13T14:14:09.883Z,5.27
2018-12-13T14:16:37.460Z,5.30
2018-12-13T14:19:05.820Z,5.73
2018-12-13T14:21:34.919Z,5.40
2018-12-13T14:24:02.421Z,5.20
2018-12-13T14:26:29.980Z,5.30
2018-12-13T14:28:59.402Z,5.37
2018-12-13T14:31:26.905Z,5.37
2018-12-13T14:33:54.616Z,7.47
2018-12-13T14:36:23.552Z,5.73
2018-12-13T14:38:51.724Z,5.80
2018-12-13T14:41:19.474Z,5.10
2018-12-13T14:43:47.081Z,6.00
2018-12-13T14:46:14.586Z,6.20
2018-12-13T14:48:42.284Z,6.20
2018-12-13T14:51:10.679Z,5.73
2018-12-13T14:53:38.224Z,5.83
2018-12-13T14:56:05.819Z,6.03
2018-12-13T14:58:34.145Z,6.17
2018-12-13T15:01:02.549Z,6.20
2018-12-13T15:03:31.475Z,6.07
2018-12-13T15:05:59.029Z,6.10
2018-12-13T15:08:26.920Z,6.63
2018-12-13T15:10:54.766Z,6.40
2018-12-13T15:13:22.259Z,6.60
2018-12-13T15:15:49.904Z,6.33
2018-12-13T15:18:17.433Z,6.20
2018-12-13T15:20:46.271Z,6.63
2018-12-13T15:23:14.272Z,6.13
2018-12-13T15:25:41.865Z,7.20
2018-12-13T15:28:09.718Z,6.77
2018-12-13T15:30:37.984Z,6.47
2018-12-13T15:33:05.555Z,6.87
2018-12-13T15:35:33.542Z,6.53
2018-12-13T15:38:01.103Z,6.40
2018-12-13T15:40:28.579Z,7.40
2018-12-13T15:42:56.536Z,6.97
2018-12-13T15:45:24.245Z,7.00
2018-12-13T15:47:51.901Z,6.60
2018-12-13T15:50:19.571Z,7.30
2018-12-13T15:52:47.069Z,6.93
2018-12-13T15:55:14.595Z,6.63
2018-12-13T15:57:42.208Z,6.83
2018-12-13T16:00:11.163Z,6.90
2018-12-13T16:02:39.567Z,6.90
2018-12-13T16:05:07.243Z,6.67
2018-12-13T16:07:35.862Z,7.23
2018-12-13T16:10:05.398Z,7.07
2018-12-13T16:12:32.882Z,7.17
2018-12-13T16:15:01.018Z,6.93
2018-12-13T16:17:28.594Z,7.00
2018-12-13T16:19:57.050Z,7.00
2018-12-13T16:22:25.276Z,6.53
2018-12-13T16:24:54.545Z,7.13
2018-12-13T16:27:22.368Z,7.07
2018-12-13T16:29:51.576Z,7.13
2018-12-13T16:32:19.115Z,7.37
2018-12-13T16:34:47.245Z,10.00
2018-12-13T16:37:14.850Z,7.60
2018-12-13T16:39:42.346Z,8.60
2018-12-13T16:42:10.637Z,8.80
2018-12-13T16:44:38.971Z,9.63
2018-12-13T16:47:06.477Z,8.03
2018-12-13T16:49:34.003Z,7.23
2018-12-13T16:52:01.548Z,7.40
2018-12-13T16:54:28.999Z,7.90
2018-12-13T16:56:56.539Z,7.60
2018-12-13T16:59:24.104Z,6.70
2018-12-13T17:01:51.610Z,7.03
2018-12-13T17:04:19.162Z,7.83
2018-12-13T17:06:46.693Z,6.70
2018-12-13T17:09:15.196Z,7.07
2018-12-13T17:11:42.765Z,7.73
2018-12-13T17:14:12.133Z,7.00
2018-12-13T17:16:39.775Z,7.07
2018-12-13T17:19:07.459Z,7.27
2018-12-13T17:21:36.641Z,7.80
2018-12-13T17:24:04.862Z,6.80
2018-12-13T17:26:32.672Z,8.00
2018-12-13T17:29:00.202Z,7.07
2018-12-13T17:31:27.759Z,8.13
2018-12-13T17:33:56.207Z,9.37
2018-12-13T17:36:25.279Z,7.93
2018-12-13T17:38:52.779Z,7.37
2018-12-13T17:41:21.262Z,7.73
2018-12-13T17:43:48.722Z,7.60
2018-12-13T17:46:16.279Z,7.93
2018-12-13T17:48:43.907Z,8.40
2018-12-13T17:51:13.545Z,7.87
2018-12-13T17:53:41.811Z,8.50
2018-12-13T17:56:09.362Z,8.67
2018-12-13T17:58:37.073Z,10.20
2018-12-13T18:01:04.569Z,8.70
2018-12-13T18:03:32.104Z,9.37
2018-12-13T18:05:59.574Z,8.63
2018-12-13T18:08:27.048Z,12.13
2018-12-13T18:10:54.574Z,9.03
2018-12-13T18:13:22.912Z,9.50
2018-12-13T18:15:50.400Z,9.27
2018-12-13T18:18:18.819Z,11.17
2018-12-13T18:20:48.095Z,8.77
2018-12-13T18:23:17.410Z,9.23
2018-12-13T18:25:45.844Z,9.40
2018-12-13T18:28:14.278Z,9.33
2018-12-13T18:30:41.837Z,9.37
2018-12-13T18:33:09.474Z,10.73
2018-12-13T18:35:36.939Z,9.33
2018-12-13T18:38:05.330Z,10.23
2018-12-13T18:40:35.736Z,9.03
2018-12-13T18:43:03.334Z,9.23
2018-12-13T18:45:32.808Z,8.97
2018-12-13T18:48:00.332Z,10.73
2018-12-13T18:50:27.851Z,9.40
2018-12-13T18:52:55.318Z,8.67
2018-12-13T18:55:22.961Z,9.73
2018-12-13T18:57:51.215Z,8.73
2018-12-13T19:00:21.581Z,10.50
2018-12-13T19:02:49.059Z,9.87
2018-12-13T19:05:16.838Z,10.40
2018-12-13T19:07:44.314Z,8.93
2018-12-13T19:10:13.973Z,9.83
2018-12-13T19:12:41.481Z,9.57
2018-12-13T19:15:08.996Z,10.83
2018-12-13T19:17:36.536Z,10.70
2018-12-13T19:20:06.713Z,10.87
2018-12-13T19:22:34.205Z,10.27
2018-12-13T19:25:02.084Z,11.60
2018-12-13T19:27:30.879Z,10.73
2018-12-13T19:29:58.413Z,10.33
2018-12-13T19:32:27.473Z,10.67
2018-12-13T19:35:00.269Z,11.63
2018-12-13T19:37:26.605Z,10.27
2018-12-13T19:39:54.127Z,10.90
2018-12-13T19:42:23.368Z,12.47
2018-12-13T19:44:50.891Z,12.10
2018-12-13T19:47:18.433Z,11.07
2018-12-13T19:49:46.037Z,10.57
2018-12-13T19:52:13.587Z,11.30
2018-12-13T19:54:41.204Z,11.20
2018-12-13T19:57:08.764Z,11.70
2018-12-13T19:59:36.301Z,11.97
2018-12-13T20:02:03.828Z,11.20
2018-12-13T20:04:31.422Z,12.63
2018-12-13T20:06:59.016Z,11.43
2018-12-13T20:09:27.809Z,12.33
2018-12-13T20:11:55.309Z,13.27
2018-12-13T20:14:24.216Z,12.50
2018-12-13T20:16:52.166Z,11.73
2018-12-13T20:19:19.686Z,12.17
2018-12-13T20:21:49.103Z,13.07
2018-12-13T20:24:16.690Z,13.90
2018-12-13T20:26:46.440Z,13.40
2018-12-13T20:29:15.780Z,12.77
2018-12-13T20:31:44.035Z,13.43
2018-12-13T20:34:11.892Z,12.53
2018-12-13T20:36:39.557Z,11.93
2018-12-13T20:39:08.854Z,14.47
2018-12-13T20:41:38.395Z,11.93
2018-12-13T20:44:07.087Z,12.30
2018-12-13T20:46:34.709Z,14.57
2018-12-13T20:49:02.533Z,13.67
2018-12-13T20:51:30.079Z,13.73
2018-12-13T20:54:01.144Z,12.57
2018-12-13T20:56:29.316Z,12.80
2018-12-13T20:58:58.102Z,13.97
2018-12-13T21:01:27.272Z,14.90
2018-12-13T21:03:54.765Z,16.10
2018-12-13T21:06:22.385Z,13.37
2018-12-13T21:08:50.001Z,15.17
2018-12-13T21:11:17.804Z,13.40
2018-12-13T21:13:45.302Z,14.40
2018-12-13T21:16:15.016Z,12.40
2018-12-13T21:18:42.675Z,13.67
2018-12-13T21:21:11.032Z,13.70
2018-12-13T21:23:39.401Z,14.13
2018-12-13T21:26:06.923Z,15.03
2018-12-13T21:28:34.484Z,15.83
2018-12-13T21:31:02.183Z,15.10
2018-12-13T21:33:30.784Z,15.47
2018-12-13T21:35:59.493Z,14.43
2018-12-13T21:38:27.058Z,14.40
2018-12-13T21:40:56.354Z,16.43
2018-12-13T21:43:23.986Z,16.17
2018-12-13T21:45:51.522Z,15.40
2018-12-13T21:48:20.060Z,16.47
2018-12-13T21:50:48.690Z,15.77
2018-12-13T21:53:16.197Z,14.00
2018-12-13T21:55:43.824Z,14.77
2018-12-13T21:58:11.955Z,15.03
2018-12-13T22:00:41.848Z,14.07
2018-12-13T22:03:09.990Z,14.83
2018-12-13T22:05:37.484Z,15.17
2018-12-13T22:08:05.036Z,16.37
2018-12-13T22:10:33.183Z,14.43
2018-12-13T22:13:00.900Z,14.97
2018-12-13T22:15:28.425Z,14.70
2018-12-13T22:17:56.058Z,15.47
2018-12-13T22:20:23.592Z,11.70
2018-12-13T22:22:51.243Z,11.13
2018-12-13T22:25:19.022Z,12.03
2018-12-13T22:27:47.488Z,11.53
2018-12-13T22:30:15.786Z,12.90
2018-12-13T22:32:43.303Z,11.37
2018-12-13T22:35:12.568Z,11.67
2018-12-13T22:37:40.402Z,12.77
2018-12-13T22:40:08.008Z,14.47
2018-12-13T22:42:35.586Z,13.37
2018-12-13T22:45:04.256Z,13.83
2018-12-13T22:47:31.926Z,15.10
2018-12-13T22:50:00.192Z,14.03
2018-12-13T22:52:27.695Z,17.23
2018-12-13T22:54:55.225Z,15.60
2018-12-13T22:57:22.759Z,15.47
2018-12-13T22:59:51.099Z,17.07
2018-12-13T23:02:18.585Z,17.03
2018-12-13T23:04:46.254Z,18.60
2018-12-13T23:07:13.891Z,20.47
2018-12-13T23:09:41.383Z,19.20
2018-12-13T23:12:09.157Z,17.37
2018-12-13T23:14:37.103Z,20.17
2018-12-13T23:17:04.638Z,18.67
2018-12-13T23:19:32.140Z,20.97
2018-12-13T23:22:00.788Z,19.67
2018-12-13T23:24:29.199Z,21.03
2018-12-13T23:26:56.927Z,20.53
2018-12-13T23:29:25.963Z,21.83
2018-12-13T23:31:53.459Z,20.83
2018-12-13T23:34:21.338Z,20.17
2018-12-13T23:36:48.969Z,19.13
2018-12-13T23:39:16.599Z,20.00
2018-12-13T23:41:44.154Z,20.90
2018-12-13T23:44:13.621Z,19.23
2018-12-13T23:46:41.849Z,20.33
2018-12-13T23:49:09.360Z,20.10
2018-12-13T23:51:38.492Z,19.23
2018-12-13T23:54:05.955Z,21.00
2018-12-13T23:56:34.019Z,19.77
2018-12-13T23:59:02.223Z,19.77
